createdAt,value
2017-11-03T00:00:48.479Z,99.90
2017-11-03T00:03:14.671Z,99.90
2017-11-03T00:05:40.792Z,99.90
2017-11-03T00:08:06.923Z,99.90
2017-11-03T00:10:33.152Z,99.90
2017-11-03T00:12:59.240Z,99.90
2017-11-03T00:15:25.371Z,99.90
2017-11-03T00:17:51.579Z,99.90
2017-11-03T00:20:17.766Z,99.90
2017-11-03T00:22:43.984Z,99.90
2017-11-03T00:25:10.137Z,99.90
2017-11-03T00:27:36.292Z,99.90
2017-11-03T00:30:02.563Z,99.90
2017-11-03T00:32:28.744Z,99.90
2017-11-03T00:34:54.935Z,99.90
2017-11-03T00:37:21.065Z,99.90
2017-11-03T00:39:47.316Z,99.90
2017-11-03T00:42:13.720Z,99.90
2017-11-03T00:44:39.857Z,99.90
2017-11-03T00:47:06.117Z,99.90
2017-11-03T00:49:32.348Z,99.90
2017-11-03T00:51:58.596Z,99.90
2017-11-03T00:54:24.903Z,99.90
2017-11-03T00:56:53.425Z,99.90
2017-11-03T00:59:20.312Z,99.90
2017-11-03T01:01:46.458Z,99.90
2017-11-03T01:04:12.634Z,99.90
2017-11-03T01:06:40.208Z,99.90
2017-11-03T01:09:06.410Z,99.90
2017-11-03T01:11:33.214Z,99.90
2017-11-03T01:13:59.335Z,99.90
2017-11-03T01:16:25.552Z,99.90
2017-11-03T01:18:51.647Z,99.90
2017-11-03T01:21:17.850Z,99.90
2017-11-03T01:23:44.770Z,99.90
2017-11-03T01:26:10.935Z,99.90
2017-11-03T01:28:37.131Z,99.90
2017-11-03T01:31:03.322Z,99.90
2017-11-03T01:33:29.517Z,99.90
2017-11-03T01:35:55.674Z,99.90
2017-11-03T01:38:21.832Z,99.90
2017-11-03T01:40:47.991Z,99.90
2017-11-03T01:43:14.166Z,99.90
2017-11-03T01:45:40.397Z,99.90
2017-11-03T01:48:06.547Z,99.90
2017-11-03T01:50:33.472Z,99.90
2017-11-03T01:52:59.574Z,99.90
2017-11-03T01:55:25.901Z,99.90
2017-11-03T01:57:52.126Z,99.90
2017-11-03T02:00:18.357Z,99.90
2017-11-03T02:02:44.568Z,99.90
2017-11-03T02:05:10.757Z,99.90
2017-11-03T02:07:37.632Z,99.90
2017-11-03T02:10:03.867Z,99.90
2017-11-03T02:12:30.090Z,99.90
2017-11-03T02:14:56.304Z,99.90
2017-11-03T02:17:22.833Z,99.90
2017-11-03T02:19:48.925Z,99.90
2017-11-03T02:22:15.861Z,99.90
2017-11-03T02:24:42.771Z,99.90
2017-11-03T02:27:08.940Z,99.90
2017-11-03T02:29:35.873Z,99.90
2017-11-03T02:32:01.977Z,99.90
2017-11-03T02:34:28.224Z,99.90
2017-11-03T02:36:55.067Z,99.90
2017-11-03T02:39:21.152Z,99.90
2017-11-03T02:41:47.378Z,99.90
2017-11-03T02:44:13.572Z,99.90
2017-11-03T02:46:39.877Z,99.90
2017-11-03T02:49:06.826Z,99.90
2017-11-03T02:51:33.809Z,99.90
2017-11-03T02:54:00.155Z,99.90
2017-11-03T02:56:27.659Z,99.90
2017-11-03T02:58:54.756Z,99.90
2017-11-03T03:01:20.888Z,99.90
2017-11-03T03:03:46.998Z,99.90
2017-11-03T03:06:13.898Z,99.90
2017-11-03T03:08:40.752Z,99.90
2017-11-03T03:11:06.933Z,99.90
2017-11-03T03:13:33.033Z,99.90
2017-11-03T03:15:59.262Z,99.90
2017-11-03T03:18:25.455Z,99.90
2017-11-03T03:20:51.717Z,99.90
2017-11-03T03:23:17.941Z,99.90
2017-11-03T03:25:44.010Z,99.90
2017-11-03T03:28:10.995Z,99.90
2017-11-03T03:30:37.131Z,99.90
2017-11-03T03:33:03.325Z,99.90
2017-11-03T03:35:29.455Z,99.90
2017-11-03T03:37:55.606Z,99.90
2017-11-03T03:40:21.748Z,99.90
2017-11-03T03:42:48.642Z,99.90
2017-11-03T03:45:15.543Z,99.90
2017-11-03T03:47:41.623Z,99.90
2017-11-03T03:50:07.870Z,99.90
2017-11-03T03:52:34.028Z,99.90
2017-11-03T03:55:00.151Z,99.90
2017-11-03T03:57:26.364Z,99.90
2017-11-03T03:59:52.553Z,99.90
2017-11-03T04:02:18.716Z,99.90
2017-11-03T04:04:44.979Z,99.90
2017-11-03T04:07:11.099Z,99.90
2017-11-03T04:09:38.019Z,99.90
2017-11-03T04:12:04.133Z,99.90
2017-11-03T04:14:30.331Z,99.90
2017-11-03T04:16:56.455Z,99.90
2017-11-03T04:19:22.676Z,99.90
2017-11-03T04:21:48.991Z,99.90
2017-11-03T04:24:15.146Z,99.90
2017-11-03T04:26:41.367Z,99.90
2017-11-03T04:29:07.463Z,99.90
2017-11-03T04:31:34.359Z,99.90
2017-11-03T04:34:00.436Z,99.90
2017-11-03T04:36:26.583Z,99.90
2017-11-03T04:38:52.750Z,99.90
2017-11-03T04:41:18.900Z,99.90
2017-11-03T04:43:45.058Z,99.90
2017-11-03T04:46:11.167Z,99.90
2017-11-03T04:48:38.444Z,99.90
2017-11-03T04:51:04.564Z,99.90
2017-11-03T04:53:30.750Z,99.90
2017-11-03T04:55:57.648Z,99.90
2017-11-03T04:58:24.293Z,99.90
2017-11-03T05:00:50.393Z,99.90
2017-11-03T05:03:16.536Z,99.90
2017-11-03T05:05:42.674Z,99.90
2017-11-03T05:08:08.810Z,99.90
2017-11-03T05:10:35.788Z,99.90
2017-11-03T05:13:01.944Z,99.90
2017-11-03T05:15:28.771Z,99.90
2017-11-03T05:17:54.987Z,99.90
2017-11-03T05:20:21.169Z,99.90
2017-11-03T05:22:47.324Z,99.90
2017-11-03T05:25:13.476Z,99.90
2017-11-03T05:27:39.593Z,99.90
2017-11-03T05:30:05.837Z,99.90
2017-11-03T05:32:31.977Z,99.90
2017-11-03T05:34:58.068Z,99.90
2017-11-03T05:37:24.260Z,99.90
2017-11-03T05:39:51.141Z,99.90
2017-11-03T05:42:17.320Z,99.90
2017-11-03T05:44:44.224Z,99.90
2017-11-03T05:47:10.350Z,99.90
2017-11-03T05:49:36.487Z,99.90
2017-11-03T05:52:02.667Z,99.90
2017-11-03T05:54:28.908Z,99.90
2017-11-03T05:56:55.048Z,99.90
2017-11-03T05:59:21.269Z,99.90
2017-11-03T06:01:47.496Z,99.90
2017-11-03T06:04:13.692Z,99.90
2017-11-03T06:06:40.021Z,99.90
2017-11-03T06:09:06.206Z,99.90
2017-11-03T06:11:32.345Z,99.90
2017-11-03T06:13:58.527Z,99.90
2017-11-03T06:16:24.656Z,99.90
2017-11-03T06:18:50.890Z,99.90
2017-11-03T06:21:17.029Z,99.90
2017-11-03T06:23:43.225Z,99.90
2017-11-03T06:26:09.346Z,99.90
2017-11-03T06:28:35.535Z,99.90
2017-11-03T06:31:02.415Z,99.90
2017-11-03T06:33:28.546Z,99.90
2017-11-03T06:35:54.693Z,99.90
2017-11-03T06:38:20.870Z,99.90
2017-11-03T06:40:47.038Z,99.90
2017-11-03T06:43:13.185Z,99.90
2017-11-03T06:45:39.323Z,99.90
2017-11-03T06:48:06.202Z,99.90
2017-11-03T06:50:32.305Z,99.90
2017-11-03T06:52:59.220Z,99.90
2017-11-03T06:55:26.102Z,99.90
2017-11-03T06:57:52.192Z,99.90
2017-11-03T07:00:18.398Z,99.90
2017-11-03T07:02:44.515Z,99.90
2017-11-03T07:05:10.756Z,99.90
2017-11-03T07:07:36.904Z,99.90
2017-11-03T07:10:03.867Z,99.90
2017-11-03T07:12:30.124Z,99.90
2017-11-03T07:14:56.226Z,99.90
2017-11-03T07:17:22.359Z,99.90
2017-11-03T07:19:48.499Z,99.90
2017-11-03T07:22:14.606Z,99.90
2017-11-03T07:24:40.754Z,99.90
2017-11-03T07:27:06.904Z,99.90
2017-11-03T07:29:33.097Z,99.90
2017-11-03T07:31:59.356Z,99.90
2017-11-03T07:34:26.079Z,99.90
2017-11-03T07:36:52.226Z,99.90
2017-11-03T07:39:19.114Z,99.90
2017-11-03T07:41:45.259Z,99.90
2017-11-03T07:44:11.378Z,99.90
2017-11-03T07:46:37.943Z,99.90
2017-11-03T07:49:04.047Z,99.90
2017-11-03T07:51:30.159Z,99.90
2017-11-03T07:53:57.139Z,99.90
2017-11-03T07:56:23.275Z,99.90
2017-11-03T07:58:50.248Z,99.90
2017-11-03T08:01:16.499Z,99.90
2017-11-03T08:03:43.384Z,99.90
2017-11-03T08:06:09.703Z,99.90
2017-11-03T08:08:35.859Z,99.90
2017-11-03T08:11:02.795Z,99.90
2017-11-03T08:13:29.723Z,99.90
2017-11-03T08:15:55.841Z,99.90
2017-11-03T08:18:22.060Z,99.90
2017-11-03T08:20:48.168Z,99.90
2017-11-03T08:23:14.320Z,99.90
2017-11-03T08:25:40.456Z,99.90
2017-11-03T08:28:07.484Z,99.90
2017-11-03T08:30:34.025Z,99.90
2017-11-03T08:33:00.190Z,99.90
2017-11-03T08:35:26.383Z,99.90
2017-11-03T08:37:52.591Z,99.90
2017-11-03T08:40:18.765Z,99.90
2017-11-03T08:42:44.988Z,99.90
2017-11-03T08:45:11.129Z,99.90
2017-11-03T08:47:37.250Z,99.90
2017-11-03T08:50:03.420Z,99.90
2017-11-03T08:52:29.712Z,99.90
2017-11-03T08:54:55.854Z,99.90
2017-11-03T08:57:22.046Z,99.90
2017-11-03T08:59:48.363Z,99.90
2017-11-03T09:02:15.391Z,99.90
2017-11-03T09:04:42.243Z,99.90
2017-11-03T09:07:09.126Z,99.90
2017-11-03T09:09:35.207Z,99.90
2017-11-03T09:12:02.102Z,99.90
2017-11-03T09:14:28.943Z,99.90
2017-11-03T09:16:55.152Z,99.90
2017-11-03T09:19:21.282Z,99.90
2017-11-03T09:21:47.523Z,99.90
2017-11-03T09:24:13.682Z,99.90
2017-11-03T09:26:39.910Z,99.90
2017-11-03T09:29:06.101Z,99.90
2017-11-03T09:31:32.232Z,99.90
2017-11-03T09:33:58.458Z,99.90
2017-11-03T09:36:24.590Z,99.90
2017-11-03T09:38:50.700Z,99.90
2017-11-03T09:41:16.871Z,99.90
2017-11-03T09:43:43.757Z,99.90
2017-11-03T09:46:09.945Z,99.90
2017-11-03T09:48:36.854Z,99.90
2017-11-03T09:51:02.926Z,99.90
2017-11-03T09:53:29.097Z,99.90
2017-11-03T09:55:55.256Z,99.90
2017-11-03T09:58:22.206Z,99.90
2017-11-03T10:00:49.186Z,99.90
2017-11-03T10:03:15.284Z,99.90
2017-11-03T10:05:41.475Z,99.90
2017-11-03T10:08:07.688Z,99.90
2017-11-03T10:10:33.909Z,99.90
2017-11-03T10:12:59.981Z,99.90
2017-11-03T10:15:26.907Z,99.90
2017-11-03T10:17:53.858Z,99.90
2017-11-03T10:20:20.748Z,99.90
2017-11-03T10:22:46.909Z,99.90
2017-11-03T10:25:13.128Z,99.90
2017-11-03T10:27:39.268Z,99.90
2017-11-03T10:30:06.160Z,99.90
2017-11-03T10:32:32.330Z,99.90
2017-11-03T10:34:58.577Z,99.90
2017-11-03T10:37:25.497Z,99.90
2017-11-03T10:39:51.820Z,99.90
2017-11-03T10:42:18.034Z,99.90
2017-11-03T10:44:44.167Z,99.90
2017-11-03T10:47:10.268Z,99.90
2017-11-03T10:49:36.456Z,99.90
2017-11-03T10:52:02.578Z,99.90
2017-11-03T10:54:28.848Z,99.90
2017-11-03T10:56:54.947Z,99.90
2017-11-03T10:59:21.267Z,99.90
2017-11-03T11:01:47.462Z,99.90
2017-11-03T11:04:13.681Z,99.90
2017-11-03T11:06:40.303Z,99.90
2017-11-03T11:09:06.608Z,99.90
2017-11-03T11:11:32.848Z,99.90
2017-11-03T11:13:58.957Z,99.90
2017-11-03T11:16:25.113Z,99.90
2017-11-03T11:18:51.291Z,99.90
2017-11-03T11:21:17.455Z,99.90
2017-11-03T11:23:43.649Z,99.90
2017-11-03T11:26:09.746Z,99.90
2017-11-03T11:28:36.740Z,99.90
2017-11-03T11:31:02.903Z,99.90
2017-11-03T11:33:29.073Z,99.90
2017-11-03T11:35:55.182Z,99.90
2017-11-03T11:38:21.354Z,99.90
2017-11-03T11:40:47.467Z,99.90
2017-11-03T11:43:13.640Z,99.90
2017-11-03T11:45:40.564Z,99.90
2017-11-03T11:48:06.765Z,99.90
2017-11-03T11:50:32.942Z,99.90
2017-11-03T11:52:59.919Z,99.90
2017-11-03T11:55:26.124Z,99.90
2017-11-03T11:57:52.296Z,99.90
2017-11-03T12:00:18.487Z,99.90
2017-11-03T12:02:44.673Z,99.90
2017-11-03T12:05:10.814Z,99.90
2017-11-03T12:07:37.805Z,99.90
2017-11-03T12:10:03.972Z,99.90
2017-11-03T12:12:30.278Z,99.90
2017-11-03T12:14:56.437Z,99.90
2017-11-03T12:17:23.285Z,99.90
2017-11-03T12:19:50.275Z,99.90
2017-11-03T12:22:16.363Z,99.90
2017-11-03T12:24:42.555Z,99.90
2017-11-03T12:27:08.733Z,99.90
2017-11-03T12:29:34.842Z,99.90
2017-11-03T12:32:01.267Z,99.90
2017-11-03T12:34:28.275Z,99.90
2017-11-03T12:36:54.443Z,99.90
2017-11-03T12:39:20.580Z,99.90
2017-11-03T12:41:46.702Z,99.90
2017-11-03T12:44:12.918Z,99.90
2017-11-03T12:46:39.033Z,99.90
2017-11-03T12:49:06.056Z,99.90
2017-11-03T12:51:32.325Z,99.90
2017-11-03T12:53:58.453Z,99.90
2017-11-03T12:56:24.622Z,99.70
2017-11-03T12:58:50.742Z,98.60
2017-11-03T13:01:16.984Z,98.80
2017-11-03T13:03:43.190Z,98.70
2017-11-03T13:06:09.337Z,99.00
2017-11-03T13:08:35.493Z,99.30
2017-11-03T13:11:02.335Z,99.90
2017-11-03T13:13:29.320Z,99.90
2017-11-03T13:15:55.468Z,99.90
2017-11-03T13:18:21.684Z,99.90
2017-11-03T13:20:47.879Z,99.90
2017-11-03T13:23:14.062Z,99.90
2017-11-03T13:25:40.334Z,99.90
2017-11-03T13:28:06.481Z,99.90
2017-11-03T13:30:32.758Z,99.90
2017-11-03T13:32:59.600Z,99.90
2017-11-03T13:35:26.460Z,99.60
2017-11-03T13:37:52.596Z,99.60
2017-11-03T13:40:18.759Z,99.30
2017-11-03T13:42:44.906Z,99.30
2017-11-03T13:45:11.080Z,99.50
2017-11-03T13:47:37.320Z,99.10
2017-11-03T13:50:03.454Z,99.10
2017-11-03T13:52:29.688Z,99.40
2017-11-03T13:54:55.948Z,99.60
2017-11-03T13:57:22.904Z,99.00
2017-11-03T13:59:49.156Z,99.00
2017-11-03T14:02:15.298Z,99.60
2017-11-03T14:04:41.500Z,99.90
2017-11-03T14:07:07.662Z,99.90
2017-11-03T14:09:33.864Z,99.90
2017-11-03T14:12:00.093Z,99.70
2017-11-03T14:14:26.277Z,99.50
2017-11-03T14:16:54.403Z,99.90
2017-11-03T14:19:20.587Z,99.90
2017-11-03T14:21:46.798Z,99.90
2017-11-03T14:24:13.684Z,99.90
2017-11-03T14:26:39.896Z,99.90
2017-11-03T14:29:06.132Z,99.90
2017-11-03T14:31:32.481Z,99.90
2017-11-03T14:33:58.834Z,99.90
2017-11-03T14:36:25.161Z,99.90
2017-11-03T14:38:52.234Z,99.90
2017-11-03T14:41:20.213Z,99.90
2017-11-03T14:43:48.173Z,99.90
2017-11-03T14:46:14.402Z,99.90
2017-11-03T14:48:41.305Z,99.90
2017-11-03T14:51:07.511Z,99.90
2017-11-03T14:53:33.784Z,99.90
2017-11-03T14:56:00.172Z,99.90
2017-11-03T14:58:26.474Z,99.90
2017-11-03T15:00:53.019Z,99.90
2017-11-03T15:03:19.368Z,99.90
2017-11-03T15:05:45.648Z,99.90
2017-11-03T15:08:13.584Z,99.90
2017-11-03T15:10:39.755Z,99.90
2017-11-03T15:13:07.061Z,99.90
2017-11-03T15:15:33.442Z,99.90
2017-11-03T15:17:59.636Z,99.90
2017-11-03T15:20:26.146Z,99.90
2017-11-03T15:22:52.317Z,99.90
2017-11-03T15:25:19.287Z,99.90
2017-11-03T15:27:45.481Z,99.90
2017-11-03T15:30:12.468Z,99.90
2017-11-03T15:32:38.878Z,99.90
2017-11-03T15:35:05.353Z,99.90
2017-11-03T15:37:31.551Z,99.90
2017-11-03T15:39:57.894Z,99.90
2017-11-03T15:42:24.086Z,99.90
2017-11-03T15:44:50.359Z,99.90
2017-11-03T15:47:16.571Z,99.90
2017-11-03T15:49:42.745Z,99.90
2017-11-03T15:52:09.648Z,99.90
2017-11-03T15:54:35.967Z,99.90
2017-11-03T15:57:02.126Z,99.90
2017-11-03T15:59:28.315Z,99.90
2017-11-03T16:01:54.546Z,99.90
2017-11-03T16:04:20.832Z,99.90
2017-11-03T16:06:47.049Z,99.90
2017-11-03T16:09:13.281Z,99.90
2017-11-03T16:11:40.202Z,99.90
2017-11-03T16:14:06.429Z,99.90
2017-11-03T16:16:32.776Z,99.90
2017-11-03T16:18:59.707Z,99.90
2017-11-03T16:21:25.973Z,99.90
2017-11-03T16:23:52.183Z,99.90
2017-11-03T16:26:19.140Z,99.90
2017-11-03T16:28:46.215Z,99.90
2017-11-03T16:31:12.326Z,99.90
2017-11-03T16:33:38.542Z,99.90
2017-11-03T16:36:04.710Z,99.90
2017-11-03T16:38:30.843Z,99.90
2017-11-03T16:40:57.084Z,99.90
2017-11-03T16:43:23.265Z,99.90
2017-11-03T16:45:49.477Z,99.90
2017-11-03T16:48:15.656Z,99.90
2017-11-03T16:50:41.857Z,99.90
2017-11-03T16:53:08.204Z,99.90
2017-11-03T16:55:34.485Z,99.90
2017-11-03T16:58:00.844Z,99.90
2017-11-03T17:00:27.076Z,99.90
2017-11-03T17:02:53.381Z,99.90
2017-11-03T17:05:19.825Z,99.90
2017-11-03T17:07:46.018Z,99.90
2017-11-03T17:10:13.429Z,99.90
2017-11-03T17:12:39.660Z,99.90
2017-11-03T17:15:05.926Z,99.90
2017-11-03T17:17:32.884Z,99.90
2017-11-03T17:19:59.209Z,99.90
2017-11-03T17:22:25.474Z,99.90
2017-11-03T17:24:51.648Z,99.90
2017-11-03T17:27:18.637Z,99.90
2017-11-03T17:29:44.975Z,99.90
2017-11-03T17:32:11.323Z,99.90
2017-11-03T17:34:37.537Z,99.90
2017-11-03T17:37:03.812Z,99.90
2017-11-03T17:39:30.752Z,99.90
2017-11-03T17:41:57.084Z,99.90
2017-11-03T17:44:24.186Z,99.90
2017-11-03T17:46:50.309Z,99.90
2017-11-03T17:49:16.625Z,99.90
2017-11-03T17:51:42.814Z,99.90
2017-11-03T17:54:09.723Z,99.90
2017-11-03T17:56:36.207Z,99.90
2017-11-03T17:59:02.709Z,99.90
2017-11-03T18:01:29.785Z,99.90
2017-11-03T18:03:55.895Z,99.90
2017-11-03T18:06:22.271Z,99.90
2017-11-03T18:08:49.275Z,99.90
2017-11-03T18:11:15.442Z,99.90
2017-11-03T18:13:41.851Z,99.90
2017-11-03T18:16:08.280Z,99.90
2017-11-03T18:18:34.486Z,99.90
2017-11-03T18:21:01.459Z,99.90
2017-11-03T18:23:29.211Z,99.90
2017-11-03T18:25:55.686Z,99.90
2017-11-03T18:28:22.242Z,99.90
2017-11-03T18:30:49.249Z,99.90
2017-11-03T18:33:17.276Z,99.90
2017-11-03T18:35:44.611Z,99.90
2017-11-03T18:38:11.533Z,99.90
2017-11-03T18:40:37.830Z,99.90
2017-11-03T18:43:04.099Z,99.90
2017-11-03T18:45:30.271Z,99.90
2017-11-03T18:47:57.220Z,99.90
2017-11-03T18:50:23.427Z,99.90
2017-11-03T18:52:49.651Z,99.90
2017-11-03T18:55:15.943Z,99.90
2017-11-03T18:57:42.494Z,99.90
2017-11-03T19:00:09.378Z,99.90
2017-11-03T19:02:35.960Z,99.90
2017-11-03T19:05:02.404Z,99.90
2017-11-03T19:07:30.193Z,99.90
2017-11-03T19:09:56.538Z,99.90
2017-11-03T19:12:22.751Z,99.90
2017-11-03T19:14:48.894Z,99.90
2017-11-03T19:17:15.124Z,99.90
2017-11-03T19:19:41.228Z,99.90
2017-11-03T19:22:07.312Z,99.90
2017-11-03T19:24:33.528Z,99.90
2017-11-03T19:26:59.644Z,99.90
2017-11-03T19:29:26.058Z,99.90
2017-11-03T19:31:52.226Z,99.90
2017-11-03T19:34:19.126Z,99.90
2017-11-03T19:36:45.397Z,99.90
2017-11-03T19:39:12.341Z,99.90
2017-11-03T19:41:38.692Z,99.90
2017-11-03T19:44:05.609Z,99.90
2017-11-03T19:46:31.718Z,99.90
2017-11-03T19:48:57.950Z,99.90
2017-11-03T19:51:24.140Z,99.90
2017-11-03T19:53:50.368Z,99.90
2017-11-03T19:56:16.603Z,99.90
2017-11-03T19:58:42.749Z,99.90
2017-11-03T20:01:09.011Z,99.90
2017-11-03T20:03:35.985Z,99.90
2017-11-03T20:06:02.277Z,99.90
2017-11-03T20:08:29.362Z,99.90
2017-11-03T20:10:55.522Z,99.90
2017-11-03T20:13:21.732Z,99.90
2017-11-03T20:15:48.153Z,99.90
2017-11-03T20:18:14.302Z,99.90
2017-11-03T20:20:40.503Z,99.90
2017-11-03T20:23:06.861Z,99.90
2017-11-03T20:25:32.975Z,99.90
2017-11-03T20:27:59.103Z,99.90
2017-11-03T20:30:25.414Z,99.90
2017-11-03T20:32:51.705Z,99.90
2017-11-03T20:35:17.952Z,99.90
2017-11-03T20:37:44.256Z,99.90
2017-11-03T20:40:10.496Z,99.90
2017-11-03T20:42:36.800Z,99.90
2017-11-03T20:45:04.031Z,99.90
2017-11-03T20:47:30.260Z,99.90
2017-11-03T20:49:56.467Z,99.90
2017-11-03T20:52:23.569Z,99.90
2017-11-03T20:54:49.783Z,99.90
2017-11-03T20:57:16.770Z,99.90
2017-11-03T20:59:43.480Z,99.90
2017-11-03T21:02:09.836Z,99.90
2017-11-03T21:04:37.203Z,99.90
2017-11-03T21:07:03.377Z,99.90
2017-11-03T21:09:30.542Z,99.90
2017-11-03T21:11:56.944Z,99.90
2017-11-03T21:14:23.941Z,99.90
2017-11-03T21:16:50.886Z,99.90
2017-11-03T21:19:17.155Z,99.90
2017-11-03T21:21:44.378Z,99.90
2017-11-03T21:24:10.688Z,99.90
2017-11-03T21:26:37.016Z,99.90
2017-11-03T21:29:03.401Z,99.90
2017-11-03T21:31:30.404Z,99.90
2017-11-03T21:33:56.659Z,99.90
2017-11-03T21:36:23.958Z,99.90
2017-11-03T21:38:50.243Z,99.90
2017-11-03T21:41:17.079Z,99.90
2017-11-03T21:43:45.276Z,99.90
2017-11-03T21:46:12.407Z,99.90
2017-11-03T21:48:40.133Z,99.90
2017-11-03T21:51:07.538Z,99.90
2017-11-03T21:53:35.434Z,99.90
2017-11-03T21:56:01.851Z,99.90
2017-11-03T21:58:29.443Z,99.90
2017-11-03T22:00:55.644Z,99.90
2017-11-03T22:03:22.618Z,99.90
2017-11-03T22:05:50.166Z,99.90
2017-11-03T22:08:16.337Z,99.90
2017-11-03T22:10:43.306Z,99.90
2017-11-03T22:13:09.735Z,99.90
2017-11-03T22:15:36.139Z,99.90
2017-11-03T22:18:03.093Z,99.90
2017-11-03T22:20:30.023Z,99.90
2017-11-03T22:22:56.223Z,99.90
2017-11-03T22:25:23.262Z,99.90
2017-11-03T22:27:49.412Z,99.90
2017-11-03T22:30:15.642Z,99.90
2017-11-03T22:32:41.842Z,99.90
2017-11-03T22:35:08.067Z,99.90
2017-11-03T22:37:34.236Z,99.90
2017-11-03T22:40:01.193Z,99.90
2017-11-03T22:42:28.220Z,99.90
2017-11-03T22:44:54.574Z,99.90
2017-11-03T22:47:20.797Z,99.90
2017-11-03T22:49:47.049Z,99.90
2017-11-03T22:52:13.264Z,99.90
2017-11-03T22:54:39.496Z,99.90
2017-11-03T22:57:05.627Z,99.90
2017-11-03T22:59:31.852Z,99.90
2017-11-03T23:01:57.994Z,99.90
2017-11-03T23:04:24.123Z,99.90
2017-11-03T23:06:50.541Z,99.90
2017-11-03T23:09:16.879Z,99.90
2017-11-03T23:11:43.072Z,99.90
2017-11-03T23:14:09.289Z,99.90
2017-11-03T23:16:35.615Z,99.90
2017-11-03T23:19:02.605Z,99.90
2017-11-03T23:21:28.945Z,99.90
2017-11-03T23:23:55.057Z,99.90
2017-11-03T23:26:21.244Z,99.90
2017-11-03T23:28:47.681Z,99.90
2017-11-03T23:31:13.924Z,99.90
2017-11-03T23:33:40.109Z,99.90
2017-11-03T23:36:07.035Z,99.90
2017-11-03T23:38:33.251Z,99.90
2017-11-03T23:40:59.490Z,99.90
2017-11-03T23:43:25.731Z,99.90
2017-11-03T23:45:52.791Z,99.90
2017-11-03T23:48:19.848Z,99.90
2017-11-03T23:50:46.057Z,99.90
2017-11-03T23:53:13.054Z,99.90
2017-11-03T23:55:39.421Z,99.90
2017-11-03T23:58:05.554Z,99.90
